Aérodrome :
LOGIN :

S'inscrire | Disclaimer

   EN    FR    IT 

 










Légende :    VFR   VFR Marginal   IFR   IFR Intensif   IFR Très Intensif
Visi : 
Plafond : 
>= 8 km
>= 3000ft
5 à 8 km
1000 à 3000 ft
1500m à 5 km
500 à 1000 ft
800 à 1500m
200 à 500 ft
< 800m
< 200 ft
Symboles :   Orages  Brouillard  Fortes neiges  Fortes précipitations  Vent > 20 kt
SIGMETs :   Divers  Orages  Givrage  Turbulence  Onde Orograph.  Cendres Volcan.






- Altitude de l'aérodrome : 157 ft
- Code IATA : LIL


LFQQ - Lille Lesquin

DERNIER METAR :
  • 271500Z AUTO 31014KT 9999 BKN006 OVC011 03/03 Q0999 BECMG 33020G35KT BKN035

METARs EXPIRÉS :
  • 271430Z AUTO 31018KT 7000 -DZ OVC007 03/02 Q0997 BECMG 33020G35KT BKN035
  • 271400Z AUTO 32013KT 9999 BKN006 OVC012 03/02 Q0996 BECMG 33020G35KT BKN035
  • 271330Z AUTO 33011KT 9999 OVC005 02/02 Q0994 BECMG 33020G35KT BKN035
  • 271300Z AUTO 34011KT 7000 -SNRA OVC004 02/01 Q0993 TEMPO 4000 SNRA BECMG 33020G35KT BKN035
  • 271230Z AUTO 34010KT 3600 -SN BR BKN003 OVC008 01/01 Q0992 BECMG 33020G35KT 9999 NSW BKN035

TAF TAF LFQQ
Valide du 27 à 12h jusqu'au 28 à 18h UTC


271100Z 2712/2818 36010KT 4000 SNRA OVC007
BECMG 2714/2716 33020G35KT 9999 NSW BKN035
BECMG 2717/2719 28007KT
BECMG 2806/2809 18012KT
BECMG 2811/2814 18020G30KT
BECMG 2814/2816 4000 RA BKN013
ATIS : +33 3 20 16 19 54



MET'MAP, la Météo Aéronautique d'un coup d'oeil ! - Copyright ORBIFLY Décembre 2007 - Disclaimer

ORBIFLY MET'MAP TEAM :

Programmation & Développement : Alexandra Zaïnal
Sur une idée originale de : Baudouin d'Aumeries
Assistance à la programmation : Marc-Olivier Méhu
Soutien technique & logistique : Manuel Goepfert

Contact : metmap@orbifly.com




SOURCES & CREDITS :

   NOAA